Time;durP1;ratioP1;P1;durP2;ratioP2;P2;SDS_P1;SDS_P2;PMS_P1;PMS_P2;Temp;Humidity;BMP_temperature;BMP_pressure;BME280_temperature;BME280_humidity;BME280_pressure;Samples;Min_cycle;Max_cycle;Signal;HPM_P1;HPM_P2
2023/05/27 00:01:52;;;;;;;10.20;3.53;;;14.50;99.90;;;;;;5070876;28;20211;-71
2023/05/27 00:04:19;;;;;;;5.97;3.60;;;14.40;99.90;;;;;;5071192;28;20207;-69
2023/05/27 00:06:48;;;;;;;9.03;3.80;;;14.40;99.90;;;;;;5068174;28;20283;-74
2023/05/27 00:09:15;;;;;;;8.33;3.63;;;14.40;99.90;;;;;;5058430;28;20204;-76
2023/05/27 00:11:42;;;;;;;7.00;3.30;;;14.40;99.90;;;;;;5070881;28;20285;-79
2023/05/27 00:14:10;;;;;;;5.40;3.20;;;14.40;99.90;;;;;;5071197;28;20219;-79
2023/05/27 00:16:37;;;;;;;7.33;3.53;;;14.40;99.90;;;;;;5070366;28;20294;-76
2023/05/27 00:19:05;;;;;;;9.07;3.60;;;14.30;99.90;;;;;;5070937;28;20199;-78
2023/05/27 00:21:32;;;;;;;6.47;3.67;;;14.30;99.90;;;;;;5057636;28;20603;-80
2023/05/27 00:24:00;;;;;;;6.90;3.73;;;14.30;99.90;;;;;;5068495;28;20306;-76
2023/05/27 00:26:27;;;;;;;9.70;3.53;;;14.30;99.90;;;;;;5067890;28;20199;-77
2023/05/27 00:28:54;;;;;;;9.67;3.70;;;14.30;99.90;;;;;;5071268;28;20290;-76
2023/05/27 00:31:21;;;;;;;7.70;3.77;;;14.20;99.90;;;;;;5052755;28;20235;-77
2023/05/27 00:33:48;;;;;;;7.40;3.23;;;14.10;99.90;;;;;;5063543;28;20289;-79
2023/05/27 00:36:14;;;;;;;6.13;3.20;;;14.10;99.90;;;;;;5066133;28;20226;-81
2023/05/27 00:38:42;;;;;;;7.00;3.27;;;14.00;99.90;;;;;;5067885;28;20295;-79
2023/05/27 00:41:12;;;;;;;6.07;3.33;;;14.00;99.90;;;;;;5068287;28;20238;-79
2023/05/27 00:43:40;;;;;;;7.67;3.47;;;13.90;99.90;;;;;;5054564;28;20254;-79
2023/05/27 00:46:08;;;;;;;8.17;3.37;;;13.90;99.90;;;;;;5060012;28;20298;-79
2023/05/27 00:48:35;;;;;;;5.97;3.33;;;13.90;99.90;;;;;;5063296;28;20210;-77
2023/05/27 00:51:03;;;;;;;8.63;3.40;;;13.80;99.90;;;;;;5065411;28;20330;-76
2023/05/27 00:53:35;;;;;;;9.80;3.43;;;13.80;99.90;;;;;;5067501;28;20261;-76
2023/05/27 00:56:03;;;;;;;8.97;3.70;;;13.80;99.90;;;;;;5067410;28;20275;-76
2023/05/27 00:58:31;;;;;;;7.80;3.37;;;13.70;99.90;;;;;;5067990;28;20243;-76
2023/05/27 01:00:58;;;;;;;7.07;3.70;;;13.70;99.90;;;;;;5067525;28;20214;-76
2023/05/27 01:03:25;;;;;;;7.40;3.80;;;13.70;99.90;;;;;;5067557;28;20745;-75
2023/05/27 01:06:00;;;;;;;7.80;3.57;;;13.70;99.90;;;;;;5067604;28;20207;-75
2023/05/27 01:08:35;;;;;;;8.20;3.40;;;13.60;99.90;;;;;;5067209;28;20191;-75
2023/05/27 01:11:04;;;;;;;8.30;3.40;;;13.60;99.90;;;;;;5067708;28;20226;-75
2023/05/27 01:13:38;;;;;;;8.70;4.07;;;13.50;99.90;;;;;;5067191;28;20250;-75
2023/05/27 01:16:11;;;;;;;6.57;3.60;;;13.50;99.90;;;;;;5067987;28;20290;-77
2023/05/27 01:18:41;;;;;;;6.53;3.67;;;13.60;99.90;;;;;;5067249;28;20303;-78
2023/05/27 01:21:12;;;;;;;5.30;3.10;;;13.60;99.90;;;;;;5067481;28;20264;-76
2023/05/27 01:23:42;;;;;;;6.53;3.17;;;13.50;99.90;;;;;;5050226;28;20310;-75
2023/05/27 01:26:09;;;;;;;8.10;3.57;;;13.60;99.90;;;;;;5067170;28;20302;-76
2023/05/27 01:28:37;;;;;;;8.30;3.70;;;13.60;99.90;;;;;;5066934;28;20667;-76
2023/05/27 01:31:11;;;;;;;7.30;3.77;;;13.60;99.90;;;;;;5066508;28;20239;-77
2023/05/27 01:33:40;;;;;;;6.83;2.90;;;13.60;99.90;;;;;;5066945;28;20290;-76
2023/05/27 01:36:11;;;;;;;5.27;3.27;;;13.50;99.90;;;;;;5066989;28;20212;-76
2023/05/27 01:38:43;;;;;;;4.20;3.17;;;13.50;99.90;;;;;;5066459;28;20283;-79
2023/05/27 01:41:11;;;;;;;6.50;3.67;;;13.30;99.90;;;;;;5066966;28;20326;-79
2023/05/27 01:43:39;;;;;;;7.43;3.40;;;13.20;99.90;;;;;;5065340;28;20199;-78
2023/05/27 01:46:07;;;;;;;7.77;3.37;;;13.10;99.90;;;;;;5066566;28;20302;-78
2023/05/27 01:48:34;;;;;;;8.80;3.27;;;13.10;99.90;;;;;;5067101;28;20290;-78
2023/05/27 01:51:00;;;;;;;10.30;3.30;;;13.10;99.90;;;;;;5066684;28;20274;-78
2023/05/27 01:53:27;;;;;;;5.63;3.70;;;13.10;99.90;;;;;;5066211;28;20250;-79
2023/05/27 01:55:56;;;;;;;8.90;3.53;;;13.00;99.90;;;;;;5066779;28;20210;-79
2023/05/27 01:58:23;;;;;;;8.50;3.97;;;13.00;99.90;;;;;;5066518;28;20199;-80
2023/05/27 02:00:50;;;;;;;6.70;3.50;;;12.90;99.90;;;;;;5066429;28;20303;-79
2023/05/27 02:03:17;;;;;;;11.10;4.00;;;12.90;99.90;;;;;;5066672;28;20200;-77
2023/05/27 02:05:44;;;;;;;5.77;3.60;;;12.90;99.90;;;;;;5066551;28;20211;-76
2023/05/27 02:08:11;;;;;;;8.37;3.40;;;12.90;99.90;;;;;;5066674;28;20294;-76
2023/05/27 02:10:38;;;;;;;7.63;4.10;;;12.70;99.90;;;;;;5066128;28;20231;-76
2023/05/27 02:13:06;;;;;;;4.80;3.33;;;12.70;99.90;;;;;;5065813;28;20241;-76
2023/05/27 02:15:33;;;;;;;7.90;3.70;;;12.70;99.90;;;;;;5066081;28;20234;-76
2023/05/27 02:18:00;;;;;;;6.90;3.67;;;12.70;99.90;;;;;;5066052;28;20286;-76
2023/05/27 02:20:29;;;;;;;8.40;3.57;;;12.60;99.90;;;;;;5066188;28;20208;-76
2023/05/27 02:22:55;;;;;;;8.33;3.57;;;12.60;99.90;;;;;;5066332;28;20220;-76
2023/05/27 02:25:22;;;;;;;6.53;3.40;;;12.70;99.90;;;;;;5065932;28;20297;-76
2023/05/27 02:27:52;;;;;;;4.47;3.37;;;12.70;99.90;;;;;;5065835;28;20207;-76
2023/05/27 02:30:20;;;;;;;7.43;3.57;;;12.70;99.90;;;;;;5065450;28;20214;-76
2023/05/27 02:32:47;;;;;;;8.53;3.63;;;12.60;99.90;;;;;;5065780;28;20331;-76
2023/05/27 02:35:15;;;;;;;6.83;3.17;;;12.50;99.90;;;;;;5066293;28;20218;-79
2023/05/27 02:37:42;;;;;;;4.93;3.30;;;12.50;99.90;;;;;;5065741;28;20237;-79
2023/05/27 02:40:10;;;;;;;4.67;3.93;;;12.40;99.90;;;;;;5066396;28;20576;-80
2023/05/27 02:42:37;;;;;;;8.87;3.50;;;12.40;99.90;;;;;;5065420;28;20225;-80
2023/05/27 02:45:05;;;;;;;5.80;3.83;;;12.30;99.90;;;;;;5065736;28;20234;-79
2023/05/27 02:47:34;;;;;;;6.60;3.50;;;12.30;99.90;;;;;;5064866;28;20270;-79
2023/05/27 02:50:00;;;;;;;6.97;3.60;;;12.20;99.90;;;;;;5065919;28;20355;-79
2023/05/27 02:52:27;;;;;;;8.67;3.80;;;12.30;99.90;;;;;;5065668;28;20354;-79
2023/05/27 02:54:54;;;;;;;5.57;3.47;;;12.20;99.90;;;;;;5065179;28;20214;-77
2023/05/27 02:57:21;;;;;;;9.47;3.70;;;12.20;99.90;;;;;;5065709;28;20253;-77
2023/05/27 02:59:48;;;;;;;6.33;3.20;;;12.20;99.90;;;;;;5065485;28;20233;-76
2023/05/27 03:02:15;;;;;;;6.73;3.37;;;12.10;99.90;;;;;;5065480;28;20218;-79
2023/05/27 03:04:44;;;;;;;7.13;2.97;;;12.10;99.90;;;;;;5065199;28;20741;-77
2023/05/27 03:07:11;;;;;;;5.37;3.50;;;12.10;99.90;;;;;;5065638;28;20203;-77
2023/05/27 03:09:38;;;;;;;8.97;3.30;;;12.10;99.90;;;;;;5065764;28;20306;-77
2023/05/27 03:12:05;;;;;;;7.77;3.23;;;12.00;99.90;;;;;;5064674;28;20870;-76
2023/05/27 03:14:32;;;;;;;8.17;3.77;;;12.10;99.90;;;;;;5065324;28;20265;-76
2023/05/27 03:16:59;;;;;;;5.10;3.30;;;12.10;99.90;;;;;;5065300;28;20254;-75
2023/05/27 03:19:26;;;;;;;7.43;3.73;;;12.10;99.90;;;;;;5064995;28;20246;-76
2023/05/27 03:21:54;;;;;;;9.67;3.27;;;12.00;99.90;;;;;;5065510;28;20527;-76
2023/05/27 03:24:23;;;;;;;4.63;3.33;;;12.00;99.90;;;;;;5065188;28;20724;-77
2023/05/27 03:26:50;;;;;;;5.13;3.27;;;12.00;99.90;;;;;;5065358;28;20213;-76
2023/05/27 03:29:17;;;;;;;5.47;3.40;;;12.00;99.90;;;;;;5065604;28;20696;-76
2023/05/27 03:31:44;;;;;;;4.17;3.30;;;12.00;99.90;;;;;;5065090;28;20313;-76
2023/05/27 03:34:11;;;;;;;5.57;3.10;;;11.90;99.90;;;;;;5065835;28;20583;-76
2023/05/27 03:36:38;;;;;;;6.43;3.80;;;11.90;99.90;;;;;;5065499;28;20261;-76
2023/05/27 03:39:06;;;;;;;5.97;3.67;;;11.90;99.90;;;;;;5065569;28;20203;-76
2023/05/27 03:41:33;;;;;;;9.70;3.63;;;11.80;99.90;;;;;;5065271;28;20250;-76
2023/05/27 03:44:00;;;;;;;7.27;3.37;;;11.90;99.90;;;;;;5064998;28;20199;-76
2023/05/27 03:46:27;;;;;;;7.73;3.73;;;11.80;99.90;;;;;;5065105;28;20302;-75
2023/05/27 03:48:54;;;;;;;5.90;3.63;;;11.80;99.90;;;;;;5065379;28;20294;-78
2023/05/27 03:51:21;;;;;;;9.77;4.00;;;11.90;99.90;;;;;;5065332;28;20227;-77
2023/05/27 03:53:48;;;;;;;6.00;3.80;;;11.90;99.90;;;;;;5065361;28;20652;-78
2023/05/27 03:56:17;;;;;;;7.10;3.73;;;11.90;99.90;;;;;;5065216;28;20207;-78
2023/05/27 03:58:44;;;;;;;8.30;3.73;;;11.90;99.90;;;;;;5065046;28;20218;-78
2023/05/27 04:01:11;;;;;;;7.47;3.70;;;11.90;99.90;;;;;;5064923;28;20625;-78
2023/05/27 04:03:39;;;;;;;6.93;3.73;;;11.90;99.90;;;;;;5065403;28;20208;-79
2023/05/27 04:06:06;;;;;;;5.87;3.43;;;11.90;99.90;;;;;;5065397;28;20207;-78
2023/05/27 04:08:35;;;;;;;6.33;3.63;;;11.90;99.90;;;;;;5068608;28;20294;-77
2023/05/27 04:11:02;;;;;;;6.33;3.93;;;12.00;99.90;;;;;;5068991;28;20227;-78
2023/05/27 04:13:30;;;;;;;8.80;3.80;;;12.00;99.90;;;;;;5068451;28;20742;-78
2023/05/27 04:15:59;;;;;;;7.73;4.27;;;12.00;99.90;;;;;;5068745;28;20607;-78
2023/05/27 04:18:26;;;;;;;7.97;3.90;;;12.00;99.90;;;;;;5069047;28;20212;-78
2023/05/27 04:20:52;;;;;;;9.70;4.00;;;12.00;99.90;;;;;;5068413;28;20247;-78
2023/05/27 04:23:19;;;;;;;13.40;4.30;;;12.10;99.90;;;;;;5068705;28;20744;-79
2023/05/27 04:25:48;;;;;;;5.80;3.53;;;12.10;99.90;;;;;;5068534;28;20239;-79
2023/05/27 04:28:16;;;;;;;7.87;3.90;;;12.10;99.90;;;;;;5068512;28;20207;-78
2023/05/27 04:30:45;;;;;;;9.53;4.77;;;12.10;99.90;;;;;;5068137;28;20696;-79
2023/05/27 04:33:13;;;;;;;7.47;3.80;;;12.20;99.90;;;;;;5068742;28;20231;-79
2023/05/27 04:35:43;;;;;;;9.67;3.60;;;12.20;99.90;;;;;;5068237;28;20326;-79
2023/05/27 04:38:15;;;;;;;7.60;3.73;;;12.30;99.90;;;;;;5068496;28;20207;-79
2023/05/27 04:40:44;;;;;;;8.70;4.13;;;12.30;99.90;;;;;;5068523;28;20596;-79
2023/05/27 04:43:14;;;;;;;8.07;3.73;;;12.40;99.90;;;;;;5068402;28;20646;-79
2023/05/27 04:45:41;;;;;;;8.07;4.27;;;12.40;99.90;;;;;;5068295;28;20280;-79
2023/05/27 04:48:10;;;;;;;9.30;4.00;;;12.40;99.90;;;;;;5068165;28;20339;-79
2023/05/27 04:50:37;;;;;;;7.13;4.30;;;12.40;99.90;;;;;;5068397;28;20218;-80
2023/05/27 04:53:04;;;;;;;10.43;4.27;;;12.40;99.90;;;;;;5067693;28;20249;-79
2023/05/27 04:55:31;;;;;;;7.33;4.07;;;12.40;99.90;;;;;;5067947;28;20204;-79
2023/05/27 04:58:03;;;;;;;9.80;4.73;;;12.50;99.90;;;;;;5068194;28;20326;-77
2023/05/27 05:00:49;;;;;;;7.47;4.27;;;12.50;99.90;;;;;;5067801;28;20207;-77
2023/05/27 05:03:20;;;;;;;7.33;4.47;;;12.50;99.90;;;;;;5068051;28;20256;-78
2023/05/27 05:05:52;;;;;;;9.57;4.60;;;12.60;99.90;;;;;;5067768;28;20192;-76
2023/05/27 05:08:19;;;;;;;9.70;4.30;;;12.60;99.90;;;;;;5067842;28;20208;-80
2023/05/27 05:10:48;;;;;;;10.40;4.70;;;12.60;99.90;;;;;;5067846;28;20993;-79
2023/05/27 05:13:16;;;;;;;12.50;4.20;;;12.60;99.90;;;;;;5067686;28;20368;-79
2023/05/27 05:15:43;;;;;;;9.80;4.47;;;12.60;99.90;;;;;;5066904;28;20977;-76
2023/05/27 05:18:11;;;;;;;12.47;4.23;;;12.60;99.90;;;;;;5066333;28;20231;-77
2023/05/27 05:20:40;;;;;;;12.40;4.23;;;12.60;99.90;;;;;;5050261;28;20204;-75
2023/05/27 05:23:09;;;;;;;8.33;3.87;;;12.70;99.90;;;;;;5052459;28;20199;-80
2023/05/27 05:25:37;;;;;;;12.77;3.87;;;12.80;99.90;;;;;;5067213;28;20247;-79
2023/05/27 05:28:04;;;;;;;8.73;4.07;;;12.90;99.90;;;;;;5067407;28;20716;-79
2023/05/27 05:30:32;;;;;;;8.70;3.70;;;13.00;99.90;;;;;;5066492;28;20744;-74
2023/05/27 05:32:59;;;;;;;8.70;3.33;;;13.10;99.90;;;;;;5064438;28;20254;-74
2023/05/27 05:35:26;;;;;;;7.43;4.00;;;13.20;99.90;;;;;;5066382;28;20665;-74
2023/05/27 05:37:54;;;;;;;10.73;4.20;;;13.20;99.90;;;;;;5067188;28;20656;-73
2023/05/27 05:40:22;;;;;;;14.23;4.30;;;13.40;99.90;;;;;;5066652;28;20294;-73
2023/05/27 05:42:49;;;;;;;8.73;4.17;;;13.40;99.90;;;;;;5064338;28;20276;-76
2023/05/27 05:45:16;;;;;;;8.53;3.70;;;13.40;99.90;;;;;;5066816;28;20672;-71
2023/05/27 05:47:43;;;;;;;13.37;4.67;;;13.50;99.90;;;;;;5067087;28;20211;-70
2023/05/27 05:50:10;;;;;;;7.93;3.57;;;13.50;99.90;;;;;;5066926;28;20211;-73
2023/05/27 05:52:37;;;;;;;12.10;4.47;;;13.60;99.90;;;;;;5067083;28;20267;-75
2023/05/27 05:55:07;;;;;;;9.40;4.23;;;13.60;99.90;;;;;;5067072;28;20231;-77
2023/05/27 05:57:34;;;;;;;6.83;3.83;;;13.60;99.90;;;;;;5066717;28;20210;-72
2023/05/27 06:00:00;;;;;;;12.70;4.50;;;13.70;99.90;;;;;;5066666;28;20349;-74
2023/05/27 06:02:27;;;;;;;9.60;3.73;;;13.80;99.90;;;;;;5066279;28;20238;-72
2023/05/27 06:04:54;;;;;;;8.43;3.77;;;13.80;99.90;;;;;;5066335;28;20220;-72
2023/05/27 06:07:21;;;;;;;8.17;4.07;;;13.90;99.90;;;;;;5061400;28;20243;-74
2023/05/27 06:09:49;;;;;;;9.70;3.50;;;13.90;99.90;;;;;;5054714;28;20314;-76
2023/05/27 06:12:17;;;;;;;7.83;3.80;;;13.90;99.90;;;;;;5062664;28;20607;-73
2023/05/27 06:14:44;;;;;;;7.80;3.03;;;14.00;99.90;;;;;;5064230;28;20711;-73
2023/05/27 06:17:11;;;;;;;5.27;3.60;;;14.00;99.90;;;;;;5064517;28;20739;-73
2023/05/27 06:19:38;;;;;;;6.37;3.20;;;14.00;99.90;;;;;;5064424;28;20291;-73
2023/05/27 06:22:05;;;;;;;6.77;2.87;;;14.00;99.90;;;;;;5064841;28;20231;-73
2023/05/27 06:24:32;;;;;;;6.23;2.73;;;14.10;99.90;;;;;;5064013;28;20192;-74
2023/05/27 06:27:00;;;;;;;7.37;3.13;;;14.10;99.90;;;;;;5064619;28;20322;-73
2023/05/27 06:29:29;;;;;;;9.03;3.40;;;14.20;99.90;;;;;;5062759;28;20211;-72
2023/05/27 06:31:56;;;;;;;26.60;18.63;;;14.20;99.90;;;;;;5062004;28;20973;-71
2023/05/27 06:34:22;;;;;;;7.87;5.70;;;14.30;99.90;;;;;;5063594;28;20286;-72
2023/05/27 06:36:49;;;;;;;9.57;3.60;;;14.30;99.90;;;;;;5064177;28;20208;-72
2023/05/27 06:39:17;;;;;;;5.13;2.80;;;14.40;99.90;;;;;;5063409;28;20204;-72
2023/05/27 06:41:44;;;;;;;9.50;2.67;;;14.40;99.90;;;;;;5063242;28;20352;-73
2023/05/27 06:44:11;;;;;;;4.33;2.00;;;14.50;99.90;;;;;;5060304;28;20565;-73
2023/05/27 06:46:39;;;;;;;4.77;2.20;;;14.50;99.90;;;;;;5063080;28;20666;-74
2023/05/27 06:49:06;;;;;;;3.70;2.10;;;14.50;99.90;;;;;;5063005;28;20203;-74
2023/05/27 06:51:33;;;;;;;3.67;2.00;;;14.60;99.90;;;;;;5063859;28;20253;-73
2023/05/27 06:54:00;;;;;;;4.27;1.67;;;14.60;99.90;;;;;;5062561;28;20300;-74
2023/05/27 06:56:27;;;;;;;3.63;1.80;;;14.70;99.90;;;;;;5064305;28;20294;-73
2023/05/27 06:58:54;;;;;;;3.13;1.80;;;14.70;99.90;;;;;;5065377;28;20211;-74
2023/05/27 07:01:21;;;;;;;3.83;2.00;;;14.80;99.90;;;;;;5065081;28;20225;-74
2023/05/27 07:03:49;;;;;;;4.43;1.70;;;14.80;99.90;;;;;;5065795;28;20288;-74
2023/05/27 07:06:16;;;;;;;4.17;1.80;;;14.90;99.90;;;;;;5064374;28;20214;-74
2023/05/27 07:08:43;;;;;;;4.60;1.70;;;14.90;99.90;;;;;;5064055;28;20243;-74
2023/05/27 07:11:10;;;;;;;3.90;1.60;;;14.90;99.90;;;;;;5064941;28;20550;-74
2023/05/27 07:13:37;;;;;;;8.40;1.90;;;14.90;99.90;;;;;;5064674;28;20295;-74
2023/05/27 07:16:04;;;;;;;1.77;1.20;;;15.00;99.90;;;;;;5064483;28;20202;-73
2023/05/27 07:18:31;;;;;;;2.67;1.53;;;15.00;99.20;;;;;;5047614;28;20206;-74
2023/05/27 07:20:59;;;;;;;2.37;1.60;;;15.10;99.00;;;;;;5065043;28;20254;-74
2023/05/27 07:23:26;;;;;;;3.43;1.50;;;15.10;98.20;;;;;;5064377;28;20291;-74
2023/05/27 07:25:53;;;;;;;1.70;1.10;;;15.10;97.90;;;;;;5050405;28;20264;-74
2023/05/27 07:28:20;;;;;;;2.17;0.80;;;15.20;96.70;;;;;;5065169;28;20234;-74
2023/05/27 07:30:46;;;;;;;3.70;1.40;;;15.20;97.20;;;;;;5063357;28;20689;-74
2023/05/27 07:33:14;;;;;;;3.03;1.23;;;15.30;97.60;;;;;;5062005;28;20289;-74
2023/05/27 07:35:41;;;;;;;2.10;0.90;;;15.30;96.90;;;;;;5055823;28;20207;-74
2023/05/27 07:38:09;;;;;;;2.50;1.40;;;15.30;96.60;;;;;;5064833;28;20733;-74
2023/05/27 07:40:36;;;;;;;1.70;1.23;;;15.40;96.90;;;;;;5063322;28;20289;-74
2023/05/27 07:43:03;;;;;;;2.30;1.47;;;15.40;96.70;;;;;;5068652;28;20294;-76
2023/05/27 07:45:31;;;;;;;1.77;1.17;;;15.40;96.50;;;;;;5068386;28;20239;-73
2023/05/27 07:47:58;;;;;;;1.90;1.03;;;15.50;96.80;;;;;;5068481;28;20204;-72
2023/05/27 07:50:25;;;;;;;3.63;1.13;;;15.50;96.90;;;;;;5068448;28;20286;-71
2023/05/27 07:52:52;;;;;;;1.60;1.20;;;15.50;96.60;;;;;;5067224;28;20231;-71
2023/05/27 07:55:20;;;;;;;1.00;1.00;;;15.60;96.50;;;;;;5063758;28;20298;-72
2023/05/27 07:57:47;;;;;;;2.00;0.80;;;15.60;96.50;;;;;;5062763;28;20249;-73
2023/05/27 08:00:15;;;;;;;1.97;1.00;;;15.70;96.30;;;;;;5067420;28;20245;-74
2023/05/27 08:02:43;;;;;;;2.83;0.90;;;15.70;95.00;;;;;;5067112;28;20466;-73
2023/05/27 08:05:10;;;;;;;3.30;0.97;;;15.80;94.70;;;;;;5067740;28;20203;-74
2023/05/27 08:07:37;;;;;;;1.33;0.80;;;15.80;94.80;;;;;;5068136;28;20222;-74
2023/05/27 08:10:05;;;;;;;2.13;0.80;;;15.80;94.40;;;;;;5068591;28;20220;-73
2023/05/27 08:12:33;;;;;;;1.73;1.00;;;15.80;93.50;;;;;;5067995;28;20243;-74
2023/05/27 08:15:00;;;;;;;1.00;0.90;;;15.90;94.00;;;;;;5067494;28;21015;-74
2023/05/27 08:17:27;;;;;;;1.83;0.80;;;15.90;94.30;;;;;;5068084;28;20745;-74
2023/05/27 08:19:54;;;;;;;1.93;0.80;;;15.90;94.70;;;;;;5068169;28;20287;-74
2023/05/27 08:22:20;;;;;;;11.87;2.23;;;16.00;93.60;;;;;;5068185;28;20259;-74
2023/05/27 08:24:49;;;;;;;1.20;1.07;;;16.00;93.50;;;;;;5068949;28;20730;-74
2023/05/27 08:27:18;;;;;;;1.53;1.00;;;16.00;93.10;;;;;;5068231;28;20206;-74
2023/05/27 08:29:46;;;;;;;6.87;1.50;;;16.10;92.80;;;;;;5067900;28;20246;-74
2023/05/27 08:32:13;;;;;;;2.70;1.03;;;16.10;93.60;;;;;;5067282;28;20673;-74
2023/05/27 08:34:41;;;;;;;4.93;1.30;;;16.20;94.00;;;;;;5067305;28;20297;-74
2023/05/27 08:37:08;;;;;;;1.13;0.90;;;16.20;93.90;;;;;;5067459;28;20213;-74
2023/05/27 08:39:35;;;;;;;1.57;0.83;;;16.30;91.20;;;;;;5067092;28;20207;-74
2023/05/27 08:42:04;;;;;;;1.27;0.67;;;16.40;91.80;;;;;;5068317;28;20207;-74
2023/05/27 08:44:31;;;;;;;3.83;3.47;;;16.50;91.00;;;;;;5067550;28;20991;-74
2023/05/27 08:46:59;;;;;;;2.87;2.67;;;16.60;90.50;;;;;;5068006;28;20303;-74
2023/05/27 08:49:26;;;;;;;1.20;1.10;;;16.60;90.80;;;;;;5068146;28;20208;-74
2023/05/27 08:51:55;;;;;;;3.03;0.93;;;16.60;90.60;;;;;;5067853;28;20247;-74
2023/05/27 08:54:22;;;;;;;4.67;1.00;;;16.70;89.00;;;;;;5064842;28;20322;-74
2023/05/27 08:56:51;;;;;;;1.17;1.07;;;16.70;89.90;;;;;;5068094;28;20294;-74
2023/05/27 08:59:18;;;;;;;0.83;0.80;;;16.80;89.30;;;;;;5067592;28;20295;-74
2023/05/27 09:01:45;;;;;;;2.23;1.10;;;16.80;90.00;;;;;;5067969;28;20214;-75
2023/05/27 09:04:14;;;;;;;0.83;0.83;;;16.90;88.30;;;;;;5068480;28;20303;-74
2023/05/27 09:06:43;;;;;;;4.20;0.97;;;17.00;86.60;;;;;;5067639;28;20540;-74
2023/05/27 09:09:55;;;;;;;1.73;0.80;;;17.00;83.20;;;;;;5059760;28;20638;-70
2023/05/27 09:12:24;;;;;;;2.80;0.97;;;17.10;87.50;;;;;;5065136;28;20330;-70
2023/05/27 09:14:51;;;;;;;1.80;1.13;;;17.10;90.00;;;;;;5064785;28;20247;-74
2023/05/27 09:17:18;;;;;;;1.10;1.03;;;17.20;90.80;;;;;;5066605;28;20294;-73
2023/05/27 09:19:46;;;;;;;4.07;1.10;;;17.30;90.60;;;;;;5059374;28;20294;-73
2023/05/27 09:22:23;;;;;;;3.80;1.27;;;17.30;89.40;;;;;;5064528;28;20231;-74
2023/05/27 09:24:51;;;;;;;1.50;0.93;;;17.40;89.10;;;;;;5067156;28;20222;-74
2023/05/27 09:27:18;;;;;;;2.77;1.23;;;17.40;89.30;;;;;;5059756;28;20200;-74
2023/05/27 09:29:45;;;;;;;1.10;1.00;;;17.50;90.70;;;;;;5046796;28;20769;-75
2023/05/27 09:32:11;;;;;;;1.10;1.07;;;17.50;90.30;;;;;;5065348;28;20643;-74
2023/05/27 09:34:40;;;;;;;21.07;2.53;;;17.50;88.40;;;;;;5066905;28;20636;-73
2023/05/27 09:37:14;;;;;;;1.63;0.90;;;17.60;88.90;;;;;;5067199;28;20207;-75
2023/05/27 09:39:41;;;;;;;1.13;1.03;;;17.60;88.50;;;;;;5067750;28;20196;-76
2023/05/27 09:42:07;;;;;;;2.50;1.40;;;17.60;90.00;;;;;;5057438;28;20210;-74
2023/05/27 09:44:40;;;;;;;1.83;1.40;;;17.70;90.20;;;;;;5066077;28;20286;-73
2023/05/27 09:47:08;;;;;;;4.50;1.60;;;17.80;89.70;;;;;;5065890;28;20211;-74
2023/05/27 09:49:38;;;;;;;2.23;1.40;;;17.80;90.00;;;;;;5063911;28;20211;-74
2023/05/27 09:52:10;;;;;;;9.17;1.90;;;17.90;90.20;;;;;;5063887;28;20238;-74
2023/05/27 09:54:38;;;;;;;6.60;1.50;;;18.00;89.60;;;;;;5063881;28;20223;-74
2023/05/27 09:57:07;;;;;;;2.60;1.50;;;18.10;88.40;;;;;;5066488;28;20207;-74
2023/05/27 09:59:35;;;;;;;2.37;1.60;;;18.20;86.40;;;;;;5063585;28;20195;-74
2023/05/27 10:02:03;;;;;;;1.20;1.10;;;18.20;85.40;;;;;;5060509;28;20803;-75
2023/05/27 10:04:30;;;;;;;1.20;1.10;;;18.30;87.60;;;;;;5062696;28;20208;-74
2023/05/27 10:06:58;;;;;;;1.33;1.23;;;18.40;85.70;;;;;;5055293;28;20200;-75
2023/05/27 10:09:26;;;;;;;1.23;1.20;;;18.40;85.00;;;;;;5066095;28;20204;-75
2023/05/27 10:11:55;;;;;;;2.40;1.30;;;18.40;83.40;;;;;;5057168;28;20329;-74
2023/05/27 10:14:22;;;;;;;2.00;1.17;;;18.40;83.00;;;;;;5057987;28;21121;-75
2023/05/27 10:16:54;;;;;;;11.47;3.03;;;18.50;85.30;;;;;;5064499;28;20764;-75
2023/05/27 10:19:21;;;;;;;1.97;1.50;;;18.50;82.80;;;;;;5066071;28;20215;-75
2023/05/27 10:21:48;;;;;;;9.20;2.03;;;18.50;83.30;;;;;;5057929;28;20219;-74
2023/05/27 10:24:15;;;;;;;15.00;2.00;;;18.60;85.90;;;;;;5065455;28;20204;-75
2023/05/27 10:26:45;;;;;;;3.40;1.30;;;18.70;86.40;;;;;;5057066;28;20290;-74
2023/05/27 10:29:13;;;;;;;2.67;1.30;;;18.60;85.20;;;;;;5053839;28;20287;-74
2023/05/27 10:31:46;;;;;;;1.20;1.10;;;18.80;86.70;;;;;;5066050;28;20290;-73
2023/05/27 10:34:13;;;;;;;2.30;1.13;;;19.00;87.00;;;;;;5060023;28;20215;-74
2023/05/27 10:36:40;;;;;;;2.53;1.50;;;19.10;86.60;;;;;;5062757;28;20322;-74
2023/05/27 10:39:13;;;;;;;6.17;2.10;;;19.20;86.00;;;;;;5049021;28;20568;-76
2023/05/27 10:41:43;;;;;;;1.30;1.20;;;19.30;86.80;;;;;;5044847;28;20196;-74
2023/05/27 10:44:10;;;;;;;4.97;1.47;;;19.40;85.50;;;;;;5060949;28;20326;-76
2023/05/27 10:46:41;;;;;;;5.63;1.40;;;19.30;81.80;;;;;;5064225;28;20302;-75
2023/05/27 10:49:14;;;;;;;4.63;1.20;;;19.40;83.90;;;;;;5064414;28;20403;-75
2023/05/27 10:51:43;;;;;;;2.20;1.20;;;19.50;84.80;;;;;;5058947;28;20278;-76
2023/05/27 10:54:10;;;;;;;1.93;1.40;;;19.70;85.50;;;;;;5063913;28;20349;-74
2023/05/27 10:56:37;;;;;;;1.33;1.30;;;19.80;85.30;;;;;;5063754;28;20294;-73
2023/05/27 10:59:10;;;;;;;14.83;2.17;;;19.90;82.20;;;;;;5064113;28;20203;-74
2023/05/27 11:01:38;;;;;;;3.10;1.60;;;20.00;83.50;;;;;;5062063;28;20195;-75
2023/05/27 11:04:08;;;;;;;4.43;1.63;;;20.10;82.40;;;;;;5058173;28;21148;-70
2023/05/27 11:06:35;;;;;;;3.43;1.40;;;20.20;82.30;;;;;;5063375;28;20978;-71
2023/05/27 11:09:02;;;;;;;1.70;1.40;;;20.30;84.00;;;;;;5063845;28;20715;-71
2023/05/27 11:11:29;;;;;;;1.60;1.50;;;20.40;82.80;;;;;;5063541;28;20207;-71
2023/05/27 11:13:56;;;;;;;1.35;1.25;;;20.50;83.80;;;;;;5064008;28;20616;-71
2023/05/27 11:16:24;;;;;;;2.00;1.40;;;20.60;82.50;;;;;;5063158;28;20291;-71
2023/05/27 11:18:51;;;;;;;1.10;1.10;;;20.80;80.40;;;;;;5062780;28;20689;-70
2023/05/27 11:21:18;;;;;;;3.45;1.33;;;20.90;80.20;;;;;;5063895;28;20282;-71
2023/05/27 11:23:47;;;;;;;3.22;1.40;;;21.10;80.90;;;;;;5063526;28;20215;-71
2023/05/27 11:26:18;;;;;;;1.50;1.40;;;21.20;80.20;;;;;;5064851;28;20294;-71
2023/05/27 11:28:50;;;;;;;4.57;1.40;;;21.30;78.40;;;;;;5063700;28;20282;-71
2023/05/27 11:31:17;;;;;;;1.60;1.30;;;21.40;78.30;;;;;;5063335;28;20688;-71
2023/05/27 11:33:49;;;;;;;2.08;1.35;;;21.50;79.30;;;;;;5063540;28;20241;-72
2023/05/27 11:36:17;;;;;;;3.70;1.20;;;21.60;79.40;;;;;;5064018;28;20208;-71
2023/05/27 11:38:51;;;;;;;1.45;1.20;;;21.70;79.60;;;;;;5064167;28;20243;-71
2023/05/27 11:41:18;;;;;;;5.50;1.48;;;21.70;77.20;;;;;;5064055;28;20306;-71
2023/05/27 11:43:52;;;;;;;2.58;1.73;;;21.80;78.00;;;;;;5063582;28;20693;-71
2023/05/27 11:46:19;;;;;;;11.52;1.52;;;22.00;79.90;;;;;;5062199;28;20287;-71
2023/05/27 11:48:48;;;;;;;4.63;1.30;;;22.00;81.00;;;;;;5064031;28;20306;-75
2023/05/27 11:51:15;;;;;;;1.45;1.35;;;22.00;79.00;;;;;;5064105;28;20215;-72
2023/05/27 11:53:45;;;;;;;3.40;2.00;;;21.90;78.10;;;;;;5063486;28;20697;-74
2023/05/27 11:56:12;;;;;;;5.40;1.88;;;21.90;80.80;;;;;;5064875;28;20225;-75
2023/05/27 11:58:39;;;;;;;122.00;7.78;;;21.80;81.30;;;;;;5063783;28;20311;-73
2023/05/27 12:01:06;;;;;;;29.42;3.50;;;21.80;79.20;;;;;;5063411;28;20753;-72
2023/05/27 12:03:35;;;;;;;191.75;12.75;;;21.70;79.30;;;;;;5063492;28;20207;-71
2023/05/27 12:06:04;;;;;;;6.72;1.70;;;21.70;80.20;;;;;;5054526;28;20220;-72
2023/05/27 12:08:31;;;;;;;4.10;1.70;;;21.80;77.80;;;;;;5063256;28;20678;-71
2023/05/27 12:10:58;;;;;;;3.47;1.50;;;21.70;77.30;;;;;;5063259;28;20969;-71
2023/05/27 12:13:25;;;;;;;2.38;1.70;;;21.60;79.40;;;;;;5062859;28;20804;-70
2023/05/27 12:15:53;;;;;;;1.80;1.35;;;21.50;81.40;;;;;;5051856;28;20756;-72
2023/05/27 12:18:20;;;;;;;2.17;1.48;;;21.60;81.20;;;;;;5064156;28;20299;-83
2023/05/27 12:20:47;;;;;;;1.60;1.50;;;21.60;76.30;;;;;;5062981;28;20234;-72
2023/05/27 12:23:15;;;;;;;3.33;1.65;;;21.50;78.10;;;;;;5063205;28;20575;-69
2023/05/27 12:25:42;;;;;;;1.60;1.50;;;21.60;80.90;;;;;;5063900;28;20298;-86
2023/05/27 12:28:09;;;;;;;1.88;1.77;;;21.60;79.40;;;;;;5066286;28;20295;-82
2023/05/27 12:30:37;;;;;;;2.53;1.52;;;21.70;77.30;;;;;;5049565;28;20246;-81
2023/05/27 12:33:05;;;;;;;1.60;1.48;;;21.70;78.90;;;;;;5049307;28;20212;-82
2023/05/27 12:35:32;;;;;;;7.95;2.20;;;21.80;77.50;;;;;;5048274;28;20246;-80
2023/05/27 12:37:59;;;;;;;1.52;1.42;;;21.70;78.40;;;;;;5066899;28;20204;-81
2023/05/27 12:40:27;;;;;;;2.67;1.77;;;21.80;78.20;;;;;;5068898;28;20394;-80
2023/05/27 12:42:54;;;;;;;2.95;2.20;;;21.80;78.50;;;;;;5068274;28;20435;-80
2023/05/27 12:45:24;;;;;;;1.60;1.50;;;21.80;77.40;;;;;;5069153;28;20286;-80
2023/05/27 12:47:50;;;;;;;1.70;1.60;;;21.80;76.70;;;;;;5054043;28;20663;-81
2023/05/27 12:50:18;;;;;;;1.77;1.67;;;21.90;77.10;;;;;;5049039;28;20247;-80